Saturday, June 25, 2016, 5:18 PM EDT

KFDK, Frederick, Frederick Municipal Airport

Location: Frederick, MD, United States Lat: 39.417
Local Time: 5:18 PM EDT (21:18 GMT) Lon: -77.374
Time Zone: US/Eastern Elev: 301 ft

Show me the last for .
Show Decoded

2016-06-25 16:48 METAR KFDK 252048Z VRB06KT 10SM SCT060 28/17 A3020 =
2016-06-25 15:51 METAR KFDK 251951Z 08005KT 10SM SCT055 28/17 A3020 =
2016-06-25 14:50 METAR KFDK 251850Z 00000KT 10SM SCT050 27/17 3021 =
2016-06-25 13:50 METAR KFDK 251750Z 13004KT 10SM BKN080 27/17 A3021 =
2016-06-25 12:47 METAR KFDK 251647Z 04004KT 10SM BKN040 26/17 A3022 =
2016-06-25 11:47 METAR KFDK 251547Z 06006KT 10SM SCT030 BKN038 25/19 A3023 =
2016-06-25 10:47 METAR KFDK 251447Z 00000KT 10SM SCT019 BKN032 24/19 A3023 =
2016-06-25 09:50 METAR KFDK 251350Z 36004KT 7SM HZ SCT015 OVC024 22/19 A3023 =
2016-06-25 08:47 METAR KFDK 251247Z 01004KT 5SM BR OVC024 21/19 A3021 =
2016-06-25 07:47 METAR KFDK 251147Z 03004KT 5SM BR OVC022 20/19 A3019 =
2016-06-25 06:15 METAR KFDK 251015Z AUTO 00000KT 5SM BR SCT024 18/18 A3017 RMK AO2 LTG DSNT E =
2016-06-25 06:10 METAR KFDK 251010Z AUTO 00000KT 5SM BR SCT024 18/18 A3017 RMK AO2 LTG DSNT E =
2016-06-25 05:50 METAR KFDK 250950Z AUTO 02004KT 7SM SCT024 18/18 A3016 RMK AO2 =
2016-06-25 05:30 METAR KFDK 250930Z AUTO 02005KT 10SM BKN022 19/19 A3015 RMK AO2 LTG DSNT E =
2016-06-25 05:10 METAR KFDK 250910Z AUTO 02004KT 10SM OVC020 20/20 A3015 RMK AO2 LTG DSNT E =
2016-06-25 04:50 METAR KFDK 250850Z AUTO 01005KT 10SM OVC020 20/20 A3015 RMK AO2 LTG DSNT E =
2016-06-25 04:30 METAR KFDK 250830Z AUTO 01005KT 10SM OVC020 20/20 A3014 RMK AO2 =
2016-06-25 04:10 METAR KFDK 250810Z AUTO 02003KT 10SM OVC020 20/20 A3014 RMK AO2 =
2016-06-25 03:50 METAR KFDK 250750Z AUTO 02003KT 10SM OVC020 20/20 A3013 RMK AO2 LTG DSNT E =
2016-06-25 03:30 METAR KFDK 250730Z AUTO 02003KT 10SM OVC020 20/20 A3013 =
2016-06-25 03:10 METAR KFDK 250710Z AUTO 00000KT 10SM OVC020 20/20 A3013 RMK AO2 LTG DSNT E =
2016-06-25 02:50 METAR KFDK 250650Z AUTO 00000KT 7SM OVC020 20/20 A3013 RMK AO2 LTG DSNT E =
2016-06-25 02:30 METAR KFDK 250630Z AUTO 00000KT 10SM OVC020 20/20 A3013 RMK AO2 LTG DSNT E =
2016-06-25 02:10 METAR KFDK 250610Z AUTO 00000KT 7SM OVC020 19/19 A3013 RMK AO2 LTG DSNT E =
2016-06-25 01:50 METAR KFDK 250550Z AUTO 00000KT 7SM OVC022 19/19 A3013 RMK AO2 LTG DSNT E =
2016-06-25 01:30 METAR KFDK 250530Z AUTO 00000KT 7SM BKN024 18/18 A3013 RMK AO2 =
2016-06-25 01:10 METAR KFDK 250510Z AUTO 00000KT 10SM SCT024 18/18 A3012 RMK AO2 =
2016-06-25 00:50 METAR KFDK 250450Z AUTO 00000KT 10SM BKN022 19/19 A3012 RMK AO2 =
2016-06-25 00:30 METAR KFDK 250430Z AUTO 00000KT 10SM OVC022 19/19 A3012 RMK AO2 LTG DSNT E =
2016-06-25 00:10 METAR KFDK 250410Z AUTO 04004KT 10SM SCT022 18/18 A3012 RMK AO2 LTG DSNT E =
2016-06-24 23:50 METAR KFDK 250350Z AUTO 00000KT 10SM CLR 20/19 A3012 RMK AO2 =
2016-06-24 23:30 METAR KFDK 250330Z AUTO 00000KT 10SM SCT023 20/20 A3012 RMK AO2 =
2016-06-24 23:10 METAR KFDK 250310Z AUTO 03003KT 10SM OVC021 21/20 A3012 RMK AO2 =
2016-06-24 22:50 METAR KFDK 250250Z AUTO 04005KT 10SM OVC021 21/20 A3012 RMK AO2 =
2016-06-24 22:30 METAR KFDK 250230Z AUTO 02006KT 10SM OVC023 21/21 A3012 RMK AO2 =
2016-06-24 22:10 METAR KFDK 250210Z AUTO 02005KT 10SM SCT018 BKN025 OVC070 21/21 A3012 RMK AO2 =
2016-06-24 21:50 METAR KFDK 250150Z AUTO 02006KT 10SM SCT018 OVC023 21/21 A3010 RMK AO2 LTG DSNT
                 E =
2016-06-24 21:30 METAR KFDK 250130Z AUTO 01005KT 10SM OVC016 21/21 A3010 RMK AO2 =
2016-06-24 21:10 METAR KFDK 250110Z AUTO 01004KT 10SM BKN016 21/20 A3008 RMK AO2 =
2016-06-24 20:50 METAR KFDK 250050Z AUTO 03004KT 10SM BKN018 21/21 A3007 RMK AO2 =
2016-06-24 20:30 METAR KFDK 250030Z AUTO 02003KT 10SM CLR 22/20 A3006 RMK AO2 =
2016-06-24 19:50 METAR KFDK 242350Z 07006KT 7SM SCT060 23/21 A3006 =
2016-06-24 18:47 METAR KFDK 242247Z 10009KT 7SM SCT029 BKN050 OVC090 24/21 A3004 =
2016-06-24 17:47 METAR KFDK 242147Z 06006KT 5SM HZ BKN030 27/21 A3002 =

Support USWX by starting your Amazon purchase here.